Ana Sayfa
METAR-TAF:

METAR-TAF

Havaalanları :

Uşak Havalimanı

Uşak, Türkiye

Enlem: 38-40N, Boylam: 029-25E, yükseklik: 919 m

Güncel hava durumu gözlemi

Rapor saat 13:50 UTC de 12 saat ve 31 dakika önce yapıldı.
Rüzgar güney/güneydoğudan 10 kt
Sıcaklık 9°C
Nem 66%
Basınç 1010 hPa
Görüş mesafesi 10 km veya daha fazla
3500 ft yükseklikte parçalı bulutlu
4000 ft yükseklikte parçalı çok bulutlu

METAR: LTBO 231350Z 16010KT 9999 SCT035 BKN040 09/03 Q1010

Saat: 05:21 (02:21 UTC)

Tahmin

Rapor saat 16:40 UTC de 9 saat ve 41 dakika önce yapıldı.
Ayın 23'si saat 18 UTC'den ayın 24'si saat 03 UTC'ye kadar geçerli Tahmin
Rüzgar güneydan 15 kt
Görüş mesafesi 10 km veya daha fazla
3000 ft yükseklikte parçalı bulutlu
10000 ft yükseklikte parçalı çok bulutlu

TAF: LTBO 231640Z 2318/2403 18015KT 9999 SCT030 BKN100

4.000'den fazla havaalanı için hava durumu gözlemleri ve tahminleri (METAR ve TAF raporları).

Kullanılabilir istasyonlar harita üzerinde sarı ve kırmızı noktalarla gösterilir.

İstasyonun adını görmek için fareyi noktanın üzerinde gezdirin.

Sonrasında hava gözlem ve tahminlerini görmek için tıklayın.

Haritayı değiştirmek için: yaklaştırmak için siyah artı işaretli yeşil düğmeye ve uzaklaştırmak için de eksi işaretli düğmeye hızla tıklayın; bitişik haritalar için yeşil okları kullanın.


METAR-TAF: